Time;durP1;ratioP1;P1;durP2;ratioP2;P2;SDS_P1;SDS_P2;PMS_P1;PMS_P2;Temp;Humidity;BMP_temperature;BMP_pressure;BME280_temperature;BME280_humidity;BME280_pressure;Samples;Min_cycle;Max_cycle;Signal;HPM_P1;HPM_P2
2021/03/26 00:07:44;;;;;;;4.20;1.03;;;11.80;99.90;;;;;;20684320;28;20230;-71
2021/03/26 00:17:47;;;;;;;2.87;1.90;;;11.70;99.90;;;;;;20708502;28;20714;-72
2021/03/26 00:27:50;;;;;;;1.23;1.17;;;11.70;99.90;;;;;;20782640;28;20206;-72
2021/03/26 00:37:53;;;;;;;1.23;1.20;;;11.60;99.90;;;;;;20775811;28;20742;-70
2021/03/26 00:47:57;;;;;;;2.20;0.83;;;11.50;99.90;;;;;;20753568;28;20610;-70
2021/03/26 00:58:00;;;;;;;2.80;2.60;;;11.40;99.90;;;;;;20704863;28;20714;-72
2021/03/26 01:08:04;;;;;;;1.10;1.03;;;11.40;99.90;;;;;;20766816;28;20365;-71
2021/03/26 01:18:10;;;;;;;2.33;1.50;;;11.40;99.90;;;;;;20786545;28;20232;-71
2021/03/26 01:28:17;;;;;;;5.73;1.87;;;11.20;99.90;;;;;;20857327;28;20619;-72
2021/03/26 01:38:20;;;;;;;0.40;0.40;;;11.20;99.90;;;;;;20796333;28;20311;-72
2021/03/26 01:48:28;;;;;;;3.27;1.33;;;11.20;99.90;;;;;;20775010;28;20210;-72
2021/03/26 01:58:34;;;;;;;1.23;1.13;;;11.30;99.90;;;;;;20757809;28;20400;-72
2021/03/26 02:08:39;;;;;;;3.97;1.20;;;11.40;99.90;;;;;;20754478;28;20324;-72
2021/03/26 02:18:43;;;;;;;1.63;1.53;;;11.40;99.90;;;;;;20789368;28;20508;-71
2021/03/26 02:28:48;;;;;;;1.27;1.17;;;11.20;99.90;;;;;;20785999;28;20206;-71
2021/03/26 02:38:54;;;;;;;1.70;0.70;;;11.00;99.90;;;;;;20788264;28;20218;-72
2021/03/26 02:49:03;;;;;;;1.60;1.13;;;10.50;99.90;;;;;;20786739;28;20291;-72
2021/03/26 02:59:11;;;;;;;1.43;1.23;;;10.20;99.90;;;;;;20753727;28;20671;-71
2021/03/26 03:09:16;;;;;;;2.17;1.87;;;10.10;99.90;;;;;;20767614;28;20775;-72
2021/03/26 03:19:30;;;;;;;1.23;0.97;;;10.20;99.90;;;;;;20782779;28;20202;-72
2021/03/26 03:29:40;;;;;;;0.70;0.70;;;10.00;99.90;;;;;;20800838;28;20564;-72
2021/03/26 03:39:52;;;;;;;3.17;1.40;;;10.10;99.90;;;;;;20800039;28;20190;-71
2021/03/26 03:50:01;;;;;;;4.90;1.33;;;10.20;99.90;;;;;;20784856;28;20240;-71
2021/03/26 04:00:09;;;;;;;1.80;1.53;;;9.90;99.90;;;;;;20786602;28;20581;-72
2021/03/26 04:10:15;;;;;;;2.00;1.60;;;9.90;99.90;;;;;;20790240;28;20333;-72
2021/03/26 04:20:22;;;;;;;3.03;1.73;;;9.70;99.90;;;;;;20793157;28;20204;-71
2021/03/26 04:30:29;;;;;;;3.03;1.33;;;9.60;99.90;;;;;;20844321;28;20225;-70
2021/03/26 04:40:35;;;;;;;1.90;0.87;;;9.60;99.90;;;;;;20836660;28;20233;-71
2021/03/26 04:50:44;;;;;;;2.40;2.13;;;9.90;99.90;;;;;;20777136;28;20225;-70
2021/03/26 05:00:50;;;;;;;3.60;1.73;;;10.00;99.90;;;;;;20759876;28;20226;-69
2021/03/26 05:10:55;;;;;;;2.97;1.70;;;10.50;99.90;;;;;;20758098;28;20226;-70
2021/03/26 05:21:03;;;;;;;4.23;1.27;;;10.80;99.90;;;;;;20742538;28;20201;-71
2021/03/26 05:31:11;;;;;;;4.37;3.00;;;11.10;99.90;;;;;;20697336;28;20237;-72
2021/03/26 05:41:34;;;;;;;2.43;1.73;;;11.30;99.90;;;;;;20694853;28;20260;-71
2021/03/26 05:51:53;;;;;;;4.43;1.73;;;11.60;99.90;;;;;;20693358;28;20561;-71
2021/03/26 06:02:25;;;;;;;6.50;2.30;;;11.60;99.90;;;;;;20694731;28;20222;-73
2021/03/26 06:13:07;;;;;;;2.00;1.10;;;11.80;99.90;;;;;;20695127;28;20601;-74
2021/03/26 06:23:43;;;;;;;2.50;2.13;;;12.00;99.90;;;;;;20800418;28;20201;-72
2021/03/26 06:34:20;;;;;;;2.37;1.87;;;12.20;99.90;;;;;;20856631;28;20398;-72
2021/03/26 06:44:49;;;;;;;0.63;0.60;;;12.40;99.90;;;;;;20836125;28;20957;-71
2021/03/26 06:55:10;;;;;;;1.07;1.00;;;12.70;99.90;;;;;;20850164;28;20225;-70
2021/03/26 07:05:40;;;;;;;8.07;1.43;;;12.90;99.90;;;;;;20845084;28;20236;-70
2021/03/26 07:15:51;;;;;;;2.83;2.13;;;13.20;99.90;;;;;;20862803;28;20330;-68
2021/03/26 07:26:18;;;;;;;2.30;2.10;;;13.50;99.90;;;;;;20863065;28;20327;-71
2021/03/26 07:36:40;;;;;;;1.37;1.27;;;13.50;99.90;;;;;;20776610;28;20626;-71
2021/03/26 07:47:07;;;;;;;5.60;3.47;;;13.60;99.90;;;;;;20778756;28;20233;-72
2021/03/26 07:57:52;;;;;;;1.77;1.67;;;13.90;99.90;;;;;;20763301;28;20479;-71
2021/03/26 08:08:42;;;;;;;1.47;1.37;;;14.40;99.90;;;;;;20725250;28;20238;-71
2021/03/26 08:19:05;;;;;;;3.10;1.30;;;14.60;99.90;;;;;;20778257;28;20228;-70
2021/03/26 08:29:25;;;;;;;2.17;1.93;;;15.10;99.90;;;;;;20777720;28;20347;-69
2021/03/26 08:39:37;;;;;;;0.60;0.60;;;15.10;99.90;;;;;;20775144;28;20359;-70
2021/03/26 08:49:57;;;;;;;3.30;1.33;;;15.50;99.90;;;;;;20772947;28;20216;-69
2021/03/26 09:00:10;;;;;;;2.83;2.63;;;15.80;99.90;;;;;;20772430;28;20644;-69
2021/03/26 09:10:46;;;;;;;3.00;2.20;;;15.80;99.90;;;;;;20721170;28;20683;-72
2021/03/26 09:21:05;;;;;;;53.87;6.63;;;16.10;99.90;;;;;;20758202;28;20200;-69
2021/03/26 09:31:13;;;;;;;6.03;2.53;;;16.00;99.90;;;;;;20764472;28;20349;-70
2021/03/26 09:41:20;;;;;;;2.50;1.60;;;16.30;99.90;;;;;;20708386;28;20858;-70
2021/03/26 09:51:44;;;;;;;1.90;1.53;;;16.20;99.90;;;;;;20693686;28;20242;-72
2021/03/26 10:01:56;;;;;;;5.07;1.93;;;16.60;99.90;;;;;;20710074;28;20233;-71
2021/03/26 10:12:11;;;;;;;8.10;3.57;;;16.80;99.90;;;;;;20741152;28;20230;-70
2021/03/26 10:22:22;;;;;;;2.80;1.87;;;17.10;99.90;;;;;;20775699;28;20284;-70
2021/03/26 10:32:36;;;;;;;2.43;1.60;;;17.20;99.90;;;;;;20784301;28;20222;-72
2021/03/26 10:42:51;;;;;;;3.30;1.90;;;17.10;99.90;;;;;;20784118;28;20584;-71
2021/03/26 10:53:04;;;;;;;3.90;2.90;;;17.50;99.90;;;;;;20781632;28;20217;-69
2021/03/26 11:03:11;;;;;;;3.43;2.00;;;18.00;99.90;;;;;;20780322;28;20316;-70
2021/03/26 11:13:24;;;;;;;2.63;2.43;;;17.50;99.90;;;;;;20781072;28;20312;-70
2021/03/26 11:23:29;;;;;;;1.63;1.50;;;17.70;99.90;;;;;;20817556;28;20646;-71
2021/03/26 11:33:49;;;;;;;1.80;1.70;;;17.90;99.90;;;;;;20801263;28;20222;-70
2021/03/26 11:43:55;;;;;;;1.97;1.80;;;19.10;99.90;;;;;;20775631;28;20671;-70
2021/03/26 11:54:07;;;;;;;1.60;1.50;;;19.40;99.90;;;;;;20780143;28;20225;-70
2021/03/26 12:04:16;;;;;;;3.60;1.60;;;19.70;99.90;;;;;;20778113;28;20391;-72
2021/03/26 12:14:29;;;;;;;10.13;2.10;;;20.20;99.90;;;;;;20774428;28;20359;-70
2021/03/26 12:24:38;;;;;;;2.07;1.60;;;20.90;99.90;;;;;;20720606;28;20340;-70
2021/03/26 12:35:15;;;;;;;0.90;0.80;;;22.30;99.90;;;;;;20761680;28;20351;-68
2021/03/26 12:45:23;;;;;;;2.70;1.47;;;22.50;99.90;;;;;;20690433;28;20241;-68
2021/03/26 12:55:39;;;;;;;4.40;1.40;;;22.10;99.90;;;;;;20701081;28;20230;-69
2021/03/26 13:05:46;;;;;;;9.67;1.80;;;20.70;99.90;;;;;;20676240;28;20935;-69
2021/03/26 13:16:28;;;;;;;2.57;1.17;;;20.50;99.90;;;;;;20689061;28;20218;-70
2021/03/26 13:26:32;;;;;;;1.60;1.50;;;20.90;99.90;;;;;;20843815;28;20555;-75
2021/03/26 13:36:40;;;;;;;4.77;2.47;;;22.40;99.90;;;;;;20730324;28;20337;-67
2021/03/26 13:47:17;;;;;;;1.47;1.33;;;21.10;99.90;;;;;;20701335;28;20511;-70
2021/03/26 13:57:26;;;;;;;2.10;1.90;;;19.70;99.90;;;;;;20692958;28;20706;-70
2021/03/26 14:07:33;;;;;;;2.13;1.40;;;18.50;99.90;;;;;;20774050;28;20489;-67
2021/03/26 14:17:40;;;;;;;3.10;2.30;;;18.10;99.90;;;;;;20783433;28;20619;-68
2021/03/26 14:28:12;;;;;;;11.33;1.73;;;19.30;99.90;;;;;;20774899;28;20703;-70
2021/03/26 14:38:36;;;;;;;2.63;1.50;;;22.20;99.90;;;;;;20699308;28;20573;-71
2021/03/26 14:48:42;;;;;;;1.97;1.50;;;23.60;99.90;;;;;;20701083;28;20222;-70
2021/03/26 14:58:50;;;;;;;2.95;2.47;;;23.40;99.90;;;;;;20700863;28;20280;-70
2021/03/26 15:09:22;;;;;;;2.73;2.13;;;22.90;99.90;;;;;;20702291;28;20285;-71
2021/03/26 15:19:53;;;;;;;2.80;1.48;;;22.70;99.90;;;;;;20739951;28;20284;-74
2021/03/26 15:30:00;;;;;;;2.07;1.83;;;22.30;99.90;;;;;;20744253;28;20226;-75
2021/03/26 15:40:08;;;;;;;2.50;1.37;;;22.60;99.90;;;;;;20751563;28;20566;-72
2021/03/26 15:50:21;;;;;;;3.60;1.77;;;22.90;99.90;;;;;;20774841;28;20222;-70
2021/03/26 16:11:35;;;;;;;1.90;1.27;;;20.90;99.90;;;;;;20365071;29;20212;-73
2021/03/26 16:21:58;;;;;;;3.27;1.70;;;20.00;99.90;;;;;;20344838;29;20824;-69
2021/03/26 16:32:27;;;;;;;2.53;1.63;;;18.60;99.90;;;;;;20362357;29;20271;-70
2021/03/26 16:43:02;;;;;;;1.83;1.10;;;18.20;99.90;;;;;;20485360;28;20218;-67
2021/03/26 16:53:41;;;;;;;1.00;0.57;;;17.40;99.90;;;;;;20757179;28;20264;-69
2021/03/26 17:04:20;;;;;;;1.17;1.07;;;16.70;99.90;;;;;;20714750;28;20238;-69
2021/03/26 17:14:55;;;;;;;1.37;0.90;;;16.10;99.90;;;;;;20715108;28;20211;-69
2021/03/26 17:25:24;;;;;;;10.93;2.77;;;15.40;99.90;;;;;;20804294;28;20225;-69
2021/03/26 17:35:42;;;;;;;3.07;2.00;;;15.10;99.90;;;;;;20848002;28;20204;-74
2021/03/26 17:45:59;;;;;;;1.40;1.30;;;14.90;99.90;;;;;;20847692;28;20333;-71
2021/03/26 17:56:32;;;;;;;2.00;1.53;;;14.60;99.90;;;;;;20768128;28;20987;-73
2021/03/26 18:06:54;;;;;;;0.97;0.93;;;14.70;99.90;;;;;;20771285;28;20233;-70
2021/03/26 18:17:10;;;;;;;2.30;1.67;;;14.40;99.90;;;;;;20768687;28;20351;-70
2021/03/26 18:27:41;;;;;;;2.17;2.03;;;14.30;99.90;;;;;;20850310;28;20227;-75
2021/03/26 18:38:40;;;;;;;4.37;1.97;;;14.50;99.90;;;;;;20848700;28;20190;-72
2021/03/26 18:49:24;;;;;;;1.23;0.97;;;14.20;99.90;;;;;;20689361;28;20271;-71
2021/03/26 19:00:03;;;;;;;0.60;0.47;;;14.00;99.90;;;;;;20844687;28;21088;-71
2021/03/26 19:10:17;;;;;;;0.60;0.60;;;14.30;99.90;;;;;;20827883;28;20227;-70
2021/03/26 19:20:26;;;;;;;2.57;1.10;;;14.40;99.90;;;;;;20860367;28;20197;-68
2021/03/26 19:30:43;;;;;;;0.60;0.50;;;14.30;99.90;;;;;;20862820;28;20256;-71
2021/03/26 19:40:55;;;;;;;3.63;1.70;;;14.10;99.90;;;;;;20783601;28;20687;-70
2021/03/26 19:51:08;;;;;;;2.47;2.13;;;14.30;99.90;;;;;;20775879;28;20281;-72
2021/03/26 20:01:16;;;;;;;0.90;0.87;;;14.50;99.90;;;;;;20773996;28;20225;-72
2021/03/26 20:11:28;;;;;;;6.30;2.57;;;14.30;99.90;;;;;;20773156;28;20201;-72
2021/03/26 20:21:45;;;;;;;1.80;1.23;;;14.40;99.90;;;;;;20815171;28;20225;-70
2021/03/26 20:32:10;;;;;;;2.23;2.00;;;14.40;99.90;;;;;;20852490;28;20510;-71
2021/03/26 20:42:29;;;;;;;3.87;3.37;;;14.30;99.90;;;;;;20774405;28;20321;-71
2021/03/26 20:52:34;;;;;;;1.30;1.23;;;14.40;99.90;;;;;;20775358;28;20671;-73
2021/03/26 21:02:43;;;;;;;6.23;3.80;;;14.30;99.90;;;;;;20771232;28;20229;-71
2021/03/26 21:13:05;;;;;;;3.43;2.37;;;14.60;99.90;;;;;;20771120;28;20195;-72
2021/03/26 21:23:10;;;;;;;4.63;3.63;;;14.40;99.90;;;;;;20823298;28;20349;-71
2021/03/26 21:33:21;;;;;;;6.97;3.30;;;14.20;99.90;;;;;;20839188;28;20237;-70
2021/03/26 21:43:39;;;;;;;1.57;1.47;;;14.40;99.90;;;;;;20768818;28;20236;-70
2021/03/26 21:54:01;;;;;;;1.70;1.37;;;14.50;99.90;;;;;;20768958;28;20194;-72
2021/03/26 22:04:09;;;;;;;2.80;1.93;;;14.20;99.90;;;;;;20769492;28;20265;-71
2021/03/26 22:14:18;;;;;;;4.97;2.63;;;14.30;99.90;;;;;;20770365;28;20331;-69
2021/03/26 22:24:41;;;;;;;2.23;1.53;;;14.40;99.90;;;;;;20715900;28;20265;-68
2021/03/26 22:35:02;;;;;;;2.70;2.50;;;14.40;99.90;;;;;;20734840;28;20253;-68
2021/03/26 22:45:08;;;;;;;1.33;1.23;;;14.40;99.90;;;;;;20788472;28;20218;-67
2021/03/26 22:55:22;;;;;;;3.57;2.00;;;14.40;99.90;;;;;;20784335;28;20554;-67
2021/03/26 23:05:29;;;;;;;2.13;1.80;;;14.40;99.90;;;;;;20781688;28;20233;-67
2021/03/26 23:15:40;;;;;;;2.10;1.57;;;14.40;99.90;;;;;;20784646;28;20550;-67
2021/03/26 23:25:50;;;;;;;3.30;1.73;;;14.50;99.90;;;;;;20858249;28;20216;-69
2021/03/26 23:36:05;;;;;;;1.20;1.10;;;14.50;99.90;;;;;;20822186;28;20208;-67
2021/03/26 23:46:15;;;;;;;1.53;1.43;;;14.40;99.90;;;;;;20862506;28;20232;-69
2021/03/26 23:56:22;;;;;;;3.03;1.60;;;14.20;99.90;;;;;;20845789;28;20553;-69
